Portada
METAR-TAF:

METAR-TAF

Aeroports :

Karachi, Pakistan

latitud: 24-54N, longitud: 067-08E, altitud: 21 m

Observació

L'informe es va fer fa 23 minuts, a les 10:55 UTC
Vent 10 kt del Sud-Oest
Temperatura 30°C
Humitat 46%
Pressió 1011 hPa
Visibilitat: 6000 m

METAR: OPKC 201055Z 23010KT 6000 NSC 30/17 Q1011 NOSIG

Hora: 16:18 (11:18 UTC)

Pronòstic

L'informe es va fer fa 7 hores i 48 minuts, a les 03:30 UTC
Pronòstic vàlid del 20 a les 06 UTC al 20 a les 15 UTC
Vent 5 kt del Oest/Sud-Oest amb ràfegues de 15 kt
Visibilitat: 5000 m
Núvols disperses a una alçada de 2000 ft
calitja

TAF: OPKC 200330Z 2006/2015 24005G15KT 5000 HZ SCT020

Observacions i pronòstics meteorològics de més de 4000 aeroports (METAR i TAF).

Les estacions disponibles són els punts grocs i vermells al mapa.

Posi el ratolí al punt desitjat per veure el nom de l'estació.

Feu clic per veure les observacions i els pronòstics meteorològics.

Per canviar el mapa: feu clic els botons verds amb una creu de color negre per apropar; al botó verd amb un guió per allunyar la imatge; o en les fletxes verdes per a mapes adjacents.


METAR-TAF: